Latest Coastal Weather Observations for Cape Willoughby

IDS60701

Issued at 9:11 am CST Sunday 19 April 2015 (issued every 10 minutes, with the page automatically refreshed every 10 minutes)

About coastal observations | Map of coastal stations | Coastal observations for SA | Marine services | Other Formats
Station Details ID: 022803 Name: CAPE WILLOUGHBY Lat: -35.84 Lon: 138.13 Height: 55.0 m
Data from the previous 72 hours. | See also: Recent months at Cape Willoughby
Date/Time
CST
Temp

°C
Wind Pressure Rain
since 9am
mm
Weather Cloud Vis
km
Sea
Height
m
Swell
Dir
 
Speed
knots
Gust
knots
hPa Trend Height
m
Period
s
Dir
19/09:00am 13.5 SSE 20 26 1032.4 - 6.2 - - - - - - -
19/08:30am 13.0 SSE 21 27 1032.0 - 6.2 - - - - - - -
19/08:00am 13.2 SSE 20 29 1031.3 - 6.2 - - - - - - -
19/07:30am 13.0 SSE 21 31 1030.3 - 6.2 - - - - - - -
19/07:28am 13.1 SSE 20 30 1030.3 - 6.2 - - - - - - -
19/07:00am 13.0 SSE 20 28 1029.8 - 6.2 - - - - - - -
19/06:30am 12.8 SSE 19 26 1029.2 - 6.2 - - - - - - -
19/06:00am 12.7 S 23 30 1028.6 - 6.2 - - - - - - -
19/05:32am 12.7 SSE 24 35 1028.1 - 6.2 - - - - - - -
19/05:30am 12.4 SSE 26 35 1028.0 - 6.2 - - - - - - -
19/05:00am 12.6 S 27 35 1027.2 - 6.2 - - - - - - -
19/04:30am 13.2 S 24 31 1027.0 - 6.2 - - - - - - -
19/04:00am 13.1 S 25 32 1026.7 - 6.2 - - - - - - -
19/03:45am 12.2 S 24 34 1026.4 - 6.2 - - - - - - -
19/03:30am 12.5 S 23 29 1026.5 - 6.2 - - - - - - -
19/03:00am 13.1 S 22 28 1026.1 - 6.2 - - - - - - -
19/02:30am 12.9 S 20 24 1026.3 - 6.2 - - - - - - -
19/02:00am 13.4 S 23 30 1025.9 - 6.2 - - - - - - -
19/01:30am 13.4 S 22 29 1025.6 - 6.2 - - - - - - -
19/01:00am 13.5 S 24 31 1025.2 - 6.2 - - - - - - -
19/12:30am 13.8 S 20 28 1025.1 - 6.2 - - - - - - -
19/12:04am 13.7 S 19 30 1025.1 - 6.2 - - - - - - -
19/12:00am 13.7 S 21 30 1025.1 - 6.2 - - - - - - -
 
Date/Time
CST
Temp

°C
Wind Pressure Rain
since 9am
mm
Weather Cloud Vis
km
Sea
Height
m
Swell
Dir
 
Speed
knots
Gust
knots
hPa Trend Height
m
Period
s
Dir
18/11:30pm 13.7 S 20 28 1024.5 - 6.2 - - - - - - -
18/11:00pm 13.8 S 20 26 1024.3 - 6.2 - - - - - - -
18/10:30pm 13.8 S 19 26 1024.2 - 6.2 - - - - - - -
18/10:00pm 13.7 SSW 17 26 1024.0 - 6.2 - - - - - - -
18/09:35pm 13.2 S 23 33 1023.4 - 6.2 - - - - - - -
18/09:30pm 13.5 S 24 34 1023.2 - 6.2 - - - - - - -
18/09:20pm 13.7 S 21 33 1023.0 - 6.2 - - - - - - -
18/09:00pm 13.8 S 23 33 1022.5 - 6.2 Recent precip. - - - - - -
18/08:55pm 14.0 S 20 32 1022.4 - 6.2 - - - - - - -
18/08:30pm 13.8 SSW 19 26 1022.4 - 6.2 - - - - - - -
18/08:00pm 12.4 SW 14 18 1022.3 - 6.0 - - - - - - -
18/07:33pm 13.6 SSW 20 31 1021.6 - 6.0 - - - - - - -
18/07:30pm 13.6 S 22 31 1021.5 - 6.0 - - - - - - -
18/07:08pm 14.0 S 17 28 1021.2 - 6.0 - - - - - - -
18/07:00pm 14.0 SSW 21 30 1020.7 - 6.0 - - - - - - -
18/06:30pm 14.2 S 19 29 1019.7 - 6.0 - - - - - - -
18/06:01pm 14.4 S 17 28 1019.2 - 6.0 - - - - - - -
18/06:00pm 14.6 S 17 24 1019.2 - 6.0 - - - - - - -
18/05:31pm 14.5 SSW 18 28 1018.7 - 6.0 - - - - - - -
18/05:30pm 14.3 SSW 19 28 1018.7 - 6.0 - - - - - - -
18/05:00pm 14.4 SSW 24 31 1018.4 - 6.0 - - - - - - -
18/04:44pm 14.6 SSW 19 30 1018.0 - 6.0 - - - - - - -
18/04:30pm 14.0 SW 19 26 1017.6 - 6.0 - - - - - - -
18/04:00pm 13.3 SW 18 22 1017.6 - 6.0 - - - - - - -
18/03:30pm 12.6 SSW 25 31 1017.0 - 6.0 - - - - - - -
18/03:00pm 12.9 SW 21 26 1016.7 - 5.6 - - - - - - -
18/02:30pm 12.8 SW 25 32 1016.3 - 5.6 - - - - - - -
18/02:00pm 13.1 SSW 27 33 1016.0 - 5.6 - - - - - - -
18/01:51pm 13.4 SSW 22 33 1015.9 - 5.2 - - - - - - -
18/01:30pm 13.7 SSW 20 28 1015.9 - 4.2 - - - - - - -
18/01:00pm 14.8 SSW 23 29 1015.4 - 3.4 - - - - - - -
18/12:33pm 15.3 W 18 30 1015.2 - 3.2 - - - - - - -
18/12:30pm 16.4 WNW 17 30 1015.4 - 1.8 - - - - - - -
18/12:29pm 17.4 WNW 16 30 1015.3 - 1.2 - - - - - - -
18/12:00pm 18.1 NW 19 27 1014.9 - 0.0 - - - - - - -
18/11:30am 18.6 NW 16 23 1015.4 - 0.0 - - - - - - -
18/11:00am 17.8 NW 19 28 1015.7 - 0.0 - - - - - - -
18/10:30am 17.5 NW 17 23 1015.7 - 0.0 - - - - - - -
18/10:00am 16.7 NW 17 24 1015.8 - 0.0 - - - - - - -
18/09:30am 16.6 NW 16 21 1016.2 - 0.0 - - - - - - -
18/09:00am 15.4 NW 13 16 1016.3 - 0.6 - - - - - - -
18/08:30am 15.5 NW 12 17 1016.2 - 0.6 - - - - - - -
18/08:00am 15.0 NW 15 20 1015.9 - 0.6 - - - - - - -
18/07:30am 14.3 NW 14 18 1015.6 - 0.6 - - - - - - -
18/07:00am 14.4 NW 10 14 1015.4 - 0.6 - - - - - - -
18/06:30am 13.9 NW 12 14 1015.3 - 0.6 - - - - - - -
18/06:00am 12.7 NW 12 14 1015.3 - 0.6 - - - - - - -
18/05:30am 12.7 NW 13 15 1015.3 - 0.6 - - - - - - -
18/05:00am 12.3 NW 14 17 1015.1 - 0.6 - - - - - - -
18/04:30am 11.8 NW 13 15 1014.9 - 0.6 - - - - - - -
18/04:00am 11.2 NW 13 15 1014.9 - 0.6 - - - - - - -
18/03:30am 10.9 NW 10 11 1015.0 - 0.6 - - - - - - -
18/03:00am 11.2 NW 10 13 1015.3 - 0.6 - - - - - - -
18/02:30am 11.7 WNW 10 12 1015.5 - 0.6 - - - - - - -
18/02:00am 12.5 WNW 6 8 1015.8 - 0.6 - - - - - - -
18/01:30am 13.1 WNW 8 11 1015.9 - 0.6 - - - - - - -
18/01:00am 13.4 WNW 7 9 1016.1 - 0.6 - - - - - - -
18/12:30am 13.5 W 7 8 1016.2 - 0.6 - - - - - - -
18/12:00am 13.6 W 7 10 1016.5 - 0.6 - - - - - - -
 
Date/Time
CST
Temp

°C
Wind Pressure Rain
since 9am
mm
Weather Cloud Vis
km
Sea
Height
m
Swell
Dir
 
Speed
knots
Gust
knots
hPa Trend Height
m
Period
s
Dir
17/11:30pm 13.6 WSW 7 9 1016.8 - 0.6 - - - - - - -
17/11:00pm 13.8 WSW 7 9 1017.0 - 0.6 - - - - - - -
17/10:30pm 14.1 WSW 8 10 1017.6 - 0.6 - - - - - - -
17/10:00pm 14.2 WSW 6 8 1017.7 - 0.6 - - - - - - -
17/09:30pm 14.4 SSW 6 8 1017.5 - 0.6 - - - - - - -
17/09:00pm 14.4 SSW 6 9 1017.5 - 0.6 - - - - - - -
17/08:30pm 14.4 SSW 5 7 1017.4 - 0.6 - - - - - - -
17/08:00pm 14.4 S 6 8 1017.2 - 0.6 - - - - - - -
17/07:30pm 14.2 S 7 9 1017.1 - 0.6 - - - - - - -
17/07:00pm 14.2 S 5 7 1016.9 - 0.6 - - - - - - -
17/06:30pm 14.2 S 6 8 1016.9 - 0.6 - - - - - - -
17/06:00pm 14.0 S 6 8 1016.8 - 0.6 Recent precip. - - - - - -
17/05:30pm 13.8 SSE 7 11 1016.6 - 0.6 - - - - - - -
17/05:00pm 13.6 SSE 8 12 1016.5 - 0.4 - - - - - - -
17/04:30pm 13.6 SSE 7 10 1016.6 - 0.4 - - - - - - -
17/04:00pm 13.6 SSE 6 9 1016.6 - 0.4 - - - - - - -
17/03:30pm 13.4 SE 5 7 1016.5 - 0.4 - - - - - - -
17/03:00pm 13.5 ENE 7 9 1016.6 - 0.4 - - - - - - -
17/02:30pm 13.3 NE 10 13 1017.0 - 0.4 - - - - - - -
17/02:00pm 13.2 ENE 10 13 1017.2 - 0.4 - - - - - - -
17/01:30pm 13.6 E 10 12 1017.8 - 0.4 - - - - - - -
17/01:00pm 13.6 E 11 13 1018.3 - 0.4 - - - - - - -
17/12:30pm 13.7 ESE 11 14 1019.0 - 0.4 - - - - - - -
17/12:00pm 13.4 ESE 11 14 1019.7 - 0.4 - - - - - - -
17/11:30am 13.5 ESE 14 17 1020.2 - 0.4 - - - - - - -
17/11:00am 13.6 ESE 15 18 1020.6 - 0.4 - - - - - - -
17/10:30am 13.8 ESE 16 19 1020.9 - 0.2 - - - - - - -
17/10:00am 13.7 ESE 16 19 1021.3 - 0.2 - - - - - - -
17/09:30am 14.6 ESE 17 20 1021.5 - 0.0 - - - - - - -
17/09:00am 14.7 SE 18 21 1021.5 - 0.8 - - - - - - -
17/08:30am 14.5 SE 18 21 1021.6 - 0.8 - - - - - - -
17/08:00am 14.6 SE 17 20 1021.6 - 0.8 - - - - - - -
17/07:30am 14.5 SE 18 21 1021.3 - 0.8 - - - - - - -
17/07:00am 14.5 SE 17 21 1021.0 - 0.8 - - - - - - -
17/06:30am 14.4 SE 19 22 1020.9 - 0.8 - - - - - - -
17/06:00am 14.6 SE 17 21 1021.4 - 0.8 - - - - - - -
17/05:30am 14.4 SE 15 19 1021.5 - 0.8 - - - - - - -
17/05:00am 14.4 SE 13 16 1021.7 - 0.8 - - - - - - -
17/04:30am 14.2 SE 10 12 1021.8 - 0.8 - - - - - - -
17/04:00am 14.2 SE 9 12 1022.0 - 0.6 - - - - - - -
17/03:30am 14.2 ESE 9 11 1022.1 - 0.6 - - - - - - -
17/03:00am 14.3 E 8 10 1022.4 - 0.4 Recent precip. - - - - - -
17/02:30am 14.5 ENE 9 11 1022.6 - 0.4 - - - - - - -
17/02:00am 14.5 E 11 13 1022.7 - 0.0 - - - - - - -
17/01:30am 14.6 E 11 13 1023.1 - 0.0 - - - - - - -
17/01:00am 14.8 E 11 14 1023.4 - 0.0 - - - - - - -
17/12:30am 14.8 E 12 14 1023.6 - 0.0 - - - - - - -
17/12:00am 15.1 E 12 15 1023.9 - 0.0 - - - - - - -
 
Date/Time
CST
Temp

°C
Wind Pressure Rain
since 9am
mm
Weather Cloud Vis
km
Sea
Height
m
Swell
Dir
 
Speed
knots
Gust
knots
hPa Trend Height
m
Period
s
Dir
16/11:30pm 15.1 E 12 15 1024.3 - 0.0 - - - - - - -
16/11:00pm 14.9 ESE 13 15 1024.7 - 0.0 - - - - - - -
16/10:30pm 15.1 ESE 13 17 1025.0 - 0.0 - - - - - - -
16/10:00pm 15.0 ESE 14 18 1025.1 - 0.0 - - - - - - -
16/09:30pm 15.0 ESE 14 17 1025.3 - 0.0 - - - - - - -
16/09:00pm 15.3 ESE 12 15 1025.5 - 0.0 - - - - - - -
16/08:30pm 15.0 ESE 12 15 1025.7 - 0.0 - - - - - - -
16/08:00pm 14.9 SE 13 16 1025.7 - 0.0 - - - - - - -
16/07:30pm 15.0 SE 12 15 1025.7 - 0.0 - - - - - - -
16/07:00pm 15.0 SE 12 15 1025.3 - 0.0 - - - - - - -
16/06:30pm 15.1 SE 11 14 1025.1 - 0.0 - - - - - - -
16/06:00pm 15.1 SE 12 16 1024.9 - 0.0 - - - - - - -
16/05:30pm 14.9 SE 11 14 1025.0 - 0.0 - - - - - - -
16/05:00pm 15.2 SE 11 14 1024.9 - 0.0 - - - - - - -
16/04:30pm 15.3 ESE 11 13 1024.7 - 0.0 - - - - - - -
16/04:00pm 15.4 SE 10 12 1024.6 - 0.0 - - - - - - -
16/03:30pm 15.4 SE 9 11 1025.0 - 0.0 - - - - - - -
16/03:00pm 15.7 SE 8 9 1025.7 - 0.0 - - - - - - -
16/02:30pm 15.8 SE 8 9 1025.7 - 0.0 - - - - - - -
16/02:00pm 16.1 SE 7 9 1025.5 - 0.0 - - - - - - -
16/01:30pm 16.1 SE 8 10 1025.5 - 0.0 - - - - - - -
16/01:00pm 15.9 SE 10 12 1025.7 - 0.0 - - - - - - -
16/12:30pm 16.0 SE 10 12 1026.1 - 0.0 - - - - - - -
16/12:00pm 15.9 SE 10 12 1026.3 - 0.0 - - - - - - -
16/11:30am 15.9 SE 10 12 1026.6 - 0.0 - - - - - - -
16/11:00am 15.7 SE 10 14 1027.0 - 0.0 - - - - - - -
16/10:30am 15.6 SSE 11 15 1026.9 - 0.0 - - - - - - -
16/10:00am 15.7 SSE 12 15 1027.0 - 0.0 - - - - - - -
16/09:30am 15.5 SSE 10 13 1027.4 - 0.0 - - - - - - -

Other Formats:

Comma delimited format used in spreadsheet applications
http://www.bom.gov.au/fwo/IDS60701/IDS60701.94822.axf

JavaScript Object Notation format (JSON) in row-major order
http://www.bom.gov.au/fwo/IDS60701/IDS60701.94822.json